sensor_id;sensor_type;location;lat;lon;timestamp;P1;durP1;ratioP1;P2;durP2;ratioP2
25091;SDS011;13082;52.374;4.946;2023-02-24T00:01:40;5.13;;;2.03;;
25091;SDS011;13082;52.374;4.946;2023-02-24T00:04:10;4.57;;;2.17;;
25091;SDS011;13082;52.374;4.946;2023-02-24T00:06:40;8.63;;;1.77;;
25091;SDS011;13082;52.374;4.946;2023-02-24T00:09:14;6.23;;;2.17;;
25091;SDS011;13082;52.374;4.946;2023-02-24T00:11:56;6.17;;;2.13;;
25091;SDS011;13082;52.374;4.946;2023-02-24T00:14:24;6.53;;;2.23;;
25091;SDS011;13082;52.374;4.946;2023-02-24T00:16:52;5.53;;;1.50;;
25091;SDS011;13082;52.374;4.946;2023-02-24T00:19:19;7.83;;;2.03;;
25091;SDS011;13082;52.374;4.946;2023-02-24T00:21:47;5.53;;;2.10;;
25091;SDS011;13082;52.374;4.946;2023-02-24T00:24:13;6.83;;;1.60;;
25091;SDS011;13082;52.374;4.946;2023-02-24T00:26:39;3.77;;;1.90;;
25091;SDS011;13082;52.374;4.946;2023-02-24T00:29:06;3.13;;;1.70;;
25091;SDS011;13082;52.374;4.946;2023-02-24T00:31:34;6.00;;;2.20;;
25091;SDS011;13082;52.374;4.946;2023-02-24T00:34:02;5.17;;;1.90;;
25091;SDS011;13082;52.374;4.946;2023-02-24T00:36:29;2.27;;;1.30;;
25091;SDS011;13082;52.374;4.946;2023-02-24T00:38:58;5.17;;;2.13;;
25091;SDS011;13082;52.374;4.946;2023-02-24T00:41:26;2.83;;;1.57;;
25091;SDS011;13082;52.374;4.946;2023-02-24T00:44:00;2.63;;;1.67;;
25091;SDS011;13082;52.374;4.946;2023-02-24T00:46:33;5.67;;;1.90;;
25091;SDS011;13082;52.374;4.946;2023-02-24T00:49:04;8.33;;;2.07;;
25091;SDS011;13082;52.374;4.946;2023-02-24T00:51:35;8.57;;;2.03;;
25091;SDS011;13082;52.374;4.946;2023-02-24T00:54:03;3.93;;;1.97;;
25091;SDS011;13082;52.374;4.946;2023-02-24T00:56:29;5.97;;;1.57;;
25091;SDS011;13082;52.374;4.946;2023-02-24T00:58:56;3.60;;;1.47;;
25091;SDS011;13082;52.374;4.946;2023-02-24T01:01:27;2.67;;;1.27;;
25091;SDS011;13082;52.374;4.946;2023-02-24T01:03:55;6.33;;;2.07;;
25091;SDS011;13082;52.374;4.946;2023-02-24T01:06:23;3.03;;;1.90;;
25091;SDS011;13082;52.374;4.946;2023-02-24T01:08:51;15.03;;;2.30;;
25091;SDS011;13082;52.374;4.946;2023-02-24T01:11:27;11.23;;;1.93;;
25091;SDS011;13082;52.374;4.946;2023-02-24T01:14:17;7.23;;;1.77;;
25091;SDS011;13082;52.374;4.946;2023-02-24T01:16:46;4.80;;;1.73;;
25091;SDS011;13082;52.374;4.946;2023-02-24T01:19:17;4.63;;;2.10;;
25091;SDS011;13082;52.374;4.946;2023-02-24T01:21:44;4.33;;;1.67;;
25091;SDS011;13082;52.374;4.946;2023-02-24T01:24:11;7.17;;;2.13;;
25091;SDS011;13082;52.374;4.946;2023-02-24T01:26:39;2.87;;;1.60;;
25091;SDS011;13082;52.374;4.946;2023-02-24T01:29:05;4.47;;;1.73;;
25091;SDS011;13082;52.374;4.946;2023-02-24T01:31:34;9.33;;;1.50;;
25091;SDS011;13082;52.374;4.946;2023-02-24T01:34:11;4.80;;;1.53;;
25091;SDS011;13082;52.374;4.946;2023-02-24T01:36:38;3.30;;;1.77;;
25091;SDS011;13082;52.374;4.946;2023-02-24T01:39:07;4.67;;;1.80;;
25091;SDS011;13082;52.374;4.946;2023-02-24T01:41:35;4.40;;;1.50;;
25091;SDS011;13082;52.374;4.946;2023-02-24T01:44:07;6.83;;;1.93;;
25091;SDS011;13082;52.374;4.946;2023-02-24T01:46:36;4.77;;;1.53;;
25091;SDS011;13082;52.374;4.946;2023-02-24T01:49:08;7.40;;;1.70;;
25091;SDS011;13082;52.374;4.946;2023-02-24T01:51:40;5.80;;;1.30;;
25091;SDS011;13082;52.374;4.946;2023-02-24T01:54:10;4.83;;;1.63;;
25091;SDS011;13082;52.374;4.946;2023-02-24T01:56:37;4.60;;;1.27;;
25091;SDS011;13082;52.374;4.946;2023-02-24T01:59:05;4.77;;;1.40;;
25091;SDS011;13082;52.374;4.946;2023-02-24T02:01:31;4.93;;;1.20;;
25091;SDS011;13082;52.374;4.946;2023-02-24T02:04:04;5.63;;;1.43;;
25091;SDS011;13082;52.374;4.946;2023-02-24T02:06:40;4.50;;;1.40;;
25091;SDS011;13082;52.374;4.946;2023-02-24T02:09:06;9.47;;;1.67;;
25091;SDS011;13082;52.374;4.946;2023-02-24T02:11:33;3.10;;;1.23;;
25091;SDS011;13082;52.374;4.946;2023-02-24T02:13:59;4.87;;;1.57;;
25091;SDS011;13082;52.374;4.946;2023-02-24T02:25:04;3.87;;;1.30;;
25091;SDS011;13082;52.374;4.946;2023-02-24T02:30:06;1.67;;;1.20;;
25091;SDS011;13082;52.374;4.946;2023-02-24T02:38:50;3.70;;;1.23;;
25091;SDS011;13082;52.374;4.946;2023-02-24T02:41:33;6.00;;;1.33;;
25091;SDS011;13082;52.374;4.946;2023-02-24T02:44:08;5.07;;;1.30;;
25091;SDS011;13082;52.374;4.946;2023-02-24T02:46:42;6.80;;;1.27;;
25091;SDS011;13082;52.374;4.946;2023-02-24T02:49:13;12.43;;;1.50;;
25091;SDS011;13082;52.374;4.946;2023-02-24T02:51:50;4.23;;;0.90;;
25091;SDS011;13082;52.374;4.946;2023-02-24T02:54:33;4.47;;;1.30;;
25091;SDS011;13082;52.374;4.946;2023-02-24T02:57:19;2.80;;;1.33;;
25091;SDS011;13082;52.374;4.946;2023-02-24T03:00:09;1.67;;;1.10;;
25091;SDS011;13082;52.374;4.946;2023-02-24T03:03:07;6.30;;;1.67;;
25091;SDS011;13082;52.374;4.946;2023-02-24T03:05:40;4.37;;;1.20;;
25091;SDS011;13082;52.374;4.946;2023-02-24T03:08:12;14.50;;;1.50;;
25091;SDS011;13082;52.374;4.946;2023-02-24T03:10:42;2.13;;;0.90;;
25091;SDS011;13082;52.374;4.946;2023-02-24T03:13:14;3.80;;;1.00;;
25091;SDS011;13082;52.374;4.946;2023-02-24T03:15:46;5.27;;;1.53;;
25091;SDS011;13082;52.374;4.946;2023-02-24T03:18:15;2.40;;;0.70;;
25091;SDS011;13082;52.374;4.946;2023-02-24T03:20:51;3.73;;;1.20;;
25091;SDS011;13082;52.374;4.946;2023-02-24T03:23:22;3.30;;;1.00;;
25091;SDS011;13082;52.374;4.946;2023-02-24T03:26:09;5.97;;;1.23;;
25091;SDS011;13082;52.374;4.946;2023-02-24T03:28:43;6.13;;;1.50;;
25091;SDS011;13082;52.374;4.946;2023-02-24T03:31:18;3.43;;;0.90;;
25091;SDS011;13082;52.374;4.946;2023-02-24T03:34:07;8.20;;;1.30;;
25091;SDS011;13082;52.374;4.946;2023-02-24T03:36:37;5.23;;;1.67;;
25091;SDS011;13082;52.374;4.946;2023-02-24T03:39:03;4.40;;;1.23;;
25091;SDS011;13082;52.374;4.946;2023-02-24T03:41:41;4.53;;;1.40;;
25091;SDS011;13082;52.374;4.946;2023-02-24T03:44:13;6.40;;;1.50;;
25091;SDS011;13082;52.374;4.946;2023-02-24T03:46:39;2.40;;;1.03;;
25091;SDS011;13082;52.374;4.946;2023-02-24T03:49:10;5.40;;;1.17;;
25091;SDS011;13082;52.374;4.946;2023-02-24T03:51:38;4.57;;;0.87;;
25091;SDS011;13082;52.374;4.946;2023-02-24T03:56:49;3.80;;;0.90;;
25091;SDS011;13082;52.374;4.946;2023-02-24T03:59:45;1.33;;;1.03;;
25091;SDS011;13082;52.374;4.946;2023-02-24T04:02:19;3.27;;;1.10;;
25091;SDS011;13082;52.374;4.946;2023-02-24T04:04:56;6.03;;;1.53;;
25091;SDS011;13082;52.374;4.946;2023-02-24T04:10:21;9.53;;;1.03;;
25091;SDS011;13082;52.374;4.946;2023-02-24T04:13:00;3.17;;;0.93;;
25091;SDS011;13082;52.374;4.946;2023-02-24T04:15:29;3.63;;;1.03;;
25091;SDS011;13082;52.374;4.946;2023-02-24T04:18:23;1.77;;;0.97;;
25091;SDS011;13082;52.374;4.946;2023-02-24T04:20:51;4.97;;;1.37;;
25091;SDS011;13082;52.374;4.946;2023-02-24T04:23:22;2.67;;;1.20;;
25091;SDS011;13082;52.374;4.946;2023-02-24T04:25:55;1.00;;;0.90;;
25091;SDS011;13082;52.374;4.946;2023-02-24T04:28:21;10.00;;;1.73;;
25091;SDS011;13082;52.374;4.946;2023-02-24T04:30:49;4.70;;;1.20;;
25091;SDS011;13082;52.374;4.946;2023-02-24T04:33:19;4.20;;;1.43;;
25091;SDS011;13082;52.374;4.946;2023-02-24T04:35:45;4.70;;;1.13;;
25091;SDS011;13082;52.374;4.946;2023-02-24T04:38:14;2.90;;;1.47;;
25091;SDS011;13082;52.374;4.946;2023-02-24T04:40:40;3.23;;;1.03;;
25091;SDS011;13082;52.374;4.946;2023-02-24T04:43:06;5.27;;;1.10;;
25091;SDS011;13082;52.374;4.946;2023-02-24T04:45:32;2.53;;;1.07;;
25091;SDS011;13082;52.374;4.946;2023-02-24T04:47:59;4.40;;;1.30;;
25091;SDS011;13082;52.374;4.946;2023-02-24T04:50:30;5.83;;;1.60;;
25091;SDS011;13082;52.374;4.946;2023-02-24T04:52:59;3.97;;;1.40;;
25091;SDS011;13082;52.374;4.946;2023-02-24T04:55:30;3.80;;;1.30;;
25091;SDS011;13082;52.374;4.946;2023-02-24T04:58:03;1.27;;;1.17;;
25091;SDS011;13082;52.374;4.946;2023-02-24T05:00:28;5.20;;;1.93;;
25091;SDS011;13082;52.374;4.946;2023-02-24T05:03:01;2.73;;;1.23;;
25091;SDS011;13082;52.374;4.946;2023-02-24T05:05:27;11.00;;;1.80;;
25091;SDS011;13082;52.374;4.946;2023-02-24T05:07:57;1.73;;;1.20;;
25091;SDS011;13082;52.374;4.946;2023-02-24T05:10:41;3.20;;;1.40;;
25091;SDS011;13082;52.374;4.946;2023-02-24T05:13:10;6.03;;;1.50;;
25091;SDS011;13082;52.374;4.946;2023-02-24T05:15:39;4.60;;;1.20;;
25091;SDS011;13082;52.374;4.946;2023-02-24T05:18:07;7.07;;;1.73;;
25091;SDS011;13082;52.374;4.946;2023-02-24T05:20:38;5.60;;;1.70;;
25091;SDS011;13082;52.374;4.946;2023-02-24T05:23:25;8.17;;;2.37;;
25091;SDS011;13082;52.374;4.946;2023-02-24T05:25:58;7.00;;;2.23;;
25091;SDS011;13082;52.374;4.946;2023-02-24T05:28:32;5.73;;;2.00;;
25091;SDS011;13082;52.374;4.946;2023-02-24T05:31:05;6.63;;;2.33;;
25091;SDS011;13082;52.374;4.946;2023-02-24T05:33:33;2.47;;;1.50;;
25091;SDS011;13082;52.374;4.946;2023-02-24T05:36:05;4.60;;;2.03;;
25091;SDS011;13082;52.374;4.946;2023-02-24T05:38:33;7.73;;;1.93;;
25091;SDS011;13082;52.374;4.946;2023-02-24T05:41:17;7.37;;;2.03;;
25091;SDS011;13082;52.374;4.946;2023-02-24T05:43:47;5.20;;;2.13;;
25091;SDS011;13082;52.374;4.946;2023-02-24T05:46:19;6.87;;;2.43;;
25091;SDS011;13082;52.374;4.946;2023-02-24T05:48:52;4.50;;;2.03;;
25091;SDS011;13082;52.374;4.946;2023-02-24T05:51:21;11.00;;;2.67;;
25091;SDS011;13082;52.374;4.946;2023-02-24T05:54:03;4.30;;;1.67;;
25091;SDS011;13082;52.374;4.946;2023-02-24T05:56:31;8.23;;;2.33;;
25091;SDS011;13082;52.374;4.946;2023-02-24T05:59:03;6.20;;;2.00;;
25091;SDS011;13082;52.374;4.946;2023-02-24T06:01:32;10.17;;;2.50;;
25091;SDS011;13082;52.374;4.946;2023-02-24T06:04:01;9.30;;;2.17;;
25091;SDS011;13082;52.374;4.946;2023-02-24T06:06:32;7.30;;;2.20;;
25091;SDS011;13082;52.374;4.946;2023-02-24T06:09:02;2.10;;;1.87;;
25091;SDS011;13082;52.374;4.946;2023-02-24T06:11:34;8.93;;;2.10;;
25091;SDS011;13082;52.374;4.946;2023-02-24T06:14:01;5.13;;;2.00;;
25091;SDS011;13082;52.374;4.946;2023-02-24T06:16:31;5.47;;;1.87;;
25091;SDS011;13082;52.374;4.946;2023-02-24T06:18:58;8.57;;;1.93;;
25091;SDS011;13082;52.374;4.946;2023-02-24T06:21:24;10.47;;;2.70;;
25091;SDS011;13082;52.374;4.946;2023-02-24T06:23:54;14.03;;;2.13;;
25091;SDS011;13082;52.374;4.946;2023-02-24T06:26:21;12.60;;;2.37;;
25091;SDS011;13082;52.374;4.946;2023-02-24T06:28:50;5.47;;;1.80;;
25091;SDS011;13082;52.374;4.946;2023-02-24T06:31:18;8.43;;;2.57;;
25091;SDS011;13082;52.374;4.946;2023-02-24T06:33:45;8.00;;;1.80;;
25091;SDS011;13082;52.374;4.946;2023-02-24T06:36:11;8.93;;;1.70;;
25091;SDS011;13082;52.374;4.946;2023-02-24T06:38:38;7.70;;;1.70;;
25091;SDS011;13082;52.374;4.946;2023-02-24T06:41:04;5.67;;;2.33;;
25091;SDS011;13082;52.374;4.946;2023-02-24T06:43:43;6.00;;;1.50;;
25091;SDS011;13082;52.374;4.946;2023-02-24T06:46:12;6.03;;;2.20;;
25091;SDS011;13082;52.374;4.946;2023-02-24T06:48:39;6.27;;;1.87;;
25091;SDS011;13082;52.374;4.946;2023-02-24T06:51:11;3.97;;;1.80;;
25091;SDS011;13082;52.374;4.946;2023-02-24T06:53:39;6.80;;;2.17;;
25091;SDS011;13082;52.374;4.946;2023-02-24T06:56:13;7.73;;;1.80;;
25091;SDS011;13082;52.374;4.946;2023-02-24T06:58:44;3.07;;;1.87;;
25091;SDS011;13082;52.374;4.946;2023-02-24T07:01:12;9.03;;;2.13;;
25091;SDS011;13082;52.374;4.946;2023-02-24T07:03:42;6.47;;;2.33;;
25091;SDS011;13082;52.374;4.946;2023-02-24T07:06:31;11.23;;;1.90;;
25091;SDS011;13082;52.374;4.946;2023-02-24T07:08:58;8.77;;;2.90;;
25091;SDS011;13082;52.374;4.946;2023-02-24T07:11:29;5.90;;;2.07;;
25091;SDS011;13082;52.374;4.946;2023-02-24T07:13:55;5.67;;;1.53;;
25091;SDS011;13082;52.374;4.946;2023-02-24T07:16:22;2.17;;;1.47;;
25091;SDS011;13082;52.374;4.946;2023-02-24T07:18:51;5.63;;;2.13;;
25091;SDS011;13082;52.374;4.946;2023-02-24T07:21:20;2.40;;;1.60;;
25091;SDS011;13082;52.374;4.946;2023-02-24T07:23:47;9.20;;;2.00;;
25091;SDS011;13082;52.374;4.946;2023-02-24T07:26:17;4.80;;;1.53;;
25091;SDS011;13082;52.374;4.946;2023-02-24T07:28:46;12.90;;;1.80;;
25091;SDS011;13082;52.374;4.946;2023-02-24T07:31:13;8.93;;;2.43;;
25091;SDS011;13082;52.374;4.946;2023-02-24T07:33:44;6.30;;;2.00;;
25091;SDS011;13082;52.374;4.946;2023-02-24T07:36:16;3.87;;;2.23;;
25091;SDS011;13082;52.374;4.946;2023-02-24T07:38:47;7.00;;;2.27;;
25091;SDS011;13082;52.374;4.946;2023-02-24T07:41:17;6.30;;;1.57;;
25091;SDS011;13082;52.374;4.946;2023-02-24T07:43:46;4.10;;;2.30;;
25091;SDS011;13082;52.374;4.946;2023-02-24T07:46:16;7.77;;;1.80;;
25091;SDS011;13082;52.374;4.946;2023-02-24T07:48:48;9.00;;;2.40;;
25091;SDS011;13082;52.374;4.946;2023-02-24T07:51:15;3.20;;;1.73;;
25091;SDS011;13082;52.374;4.946;2023-02-24T07:53:43;4.60;;;1.90;;
25091;SDS011;13082;52.374;4.946;2023-02-24T07:56:13;10.50;;;2.27;;
25091;SDS011;13082;52.374;4.946;2023-02-24T07:58:50;4.33;;;2.00;;
25091;SDS011;13082;52.374;4.946;2023-02-24T08:01:23;11.80;;;1.83;;
25091;SDS011;13082;52.374;4.946;2023-02-24T08:04:14;6.20;;;1.90;;
25091;SDS011;13082;52.374;4.946;2023-02-24T08:06:41;9.70;;;2.80;;
25091;SDS011;13082;52.374;4.946;2023-02-24T08:09:17;14.83;;;2.87;;
25091;SDS011;13082;52.374;4.946;2023-02-24T08:11:49;7.47;;;2.40;;
25091;SDS011;13082;52.374;4.946;2023-02-24T08:14:24;8.80;;;2.40;;
25091;SDS011;13082;52.374;4.946;2023-02-24T08:16:54;7.30;;;1.97;;
25091;SDS011;13082;52.374;4.946;2023-02-24T08:19:24;4.47;;;2.00;;
25091;SDS011;13082;52.374;4.946;2023-02-24T08:21:56;8.83;;;2.30;;
25091;SDS011;13082;52.374;4.946;2023-02-24T08:24:49;5.93;;;2.53;;
25091;SDS011;13082;52.374;4.946;2023-02-24T08:27:17;4.23;;;1.97;;
25091;SDS011;13082;52.374;4.946;2023-02-24T08:29:46;9.60;;;2.10;;
25091;SDS011;13082;52.374;4.946;2023-02-24T08:32:37;10.73;;;2.47;;
25091;SDS011;13082;52.374;4.946;2023-02-24T08:35:10;9.13;;;2.27;;
25091;SDS011;13082;52.374;4.946;2023-02-24T08:37:50;7.90;;;1.83;;
25091;SDS011;13082;52.374;4.946;2023-02-24T08:40:21;7.83;;;2.03;;
25091;SDS011;13082;52.374;4.946;2023-02-24T08:43:11;9.50;;;2.10;;
25091;SDS011;13082;52.374;4.946;2023-02-24T08:48:25;8.13;;;1.63;;
25091;SDS011;13082;52.374;4.946;2023-02-24T08:51:04;9.63;;;2.50;;
25091;SDS011;13082;52.374;4.946;2023-02-24T08:53:49;16.40;;;5.23;;
25091;SDS011;13082;52.374;4.946;2023-02-24T08:56:28;15.63;;;3.37;;
25091;SDS011;13082;52.374;4.946;2023-02-24T08:59:23;6.73;;;2.30;;
25091;SDS011;13082;52.374;4.946;2023-02-24T09:02:12;4.00;;;2.03;;
25091;SDS011;13082;52.374;4.946;2023-02-24T09:07:26;9.43;;;2.80;;
25091;SDS011;13082;52.374;4.946;2023-02-24T09:10:00;7.90;;;2.60;;
25091;SDS011;13082;52.374;4.946;2023-02-24T09:12:27;7.27;;;2.90;;
25091;SDS011;13082;52.374;4.946;2023-02-24T09:14:55;7.83;;;2.97;;
25091;SDS011;13082;52.374;4.946;2023-02-24T09:17:28;5.80;;;2.70;;
25091;SDS011;13082;52.374;4.946;2023-02-24T09:20:25;8.00;;;3.37;;
25091;SDS011;13082;52.374;4.946;2023-02-24T09:23:10;5.13;;;3.00;;
25091;SDS011;13082;52.374;4.946;2023-02-24T09:25:43;9.03;;;2.93;;
25091;SDS011;13082;52.374;4.946;2023-02-24T09:28:20;9.83;;;3.33;;
25091;SDS011;13082;52.374;4.946;2023-02-24T09:30:54;9.53;;;3.53;;
25091;SDS011;13082;52.374;4.946;2023-02-24T09:38:53;7.47;;;4.33;;
25091;SDS011;13082;52.374;4.946;2023-02-24T09:41:34;13.17;;;4.27;;
25091;SDS011;13082;52.374;4.946;2023-02-24T09:44:49;12.77;;;3.90;;
25091;SDS011;13082;52.374;4.946;2023-02-24T09:47:17;4.37;;;3.33;;
25091;SDS011;13082;52.374;4.946;2023-02-24T09:52:44;13.10;;;4.70;;
25091;SDS011;13082;52.374;4.946;2023-02-24T09:57:54;12.53;;;4.73;;
25091;SDS011;13082;52.374;4.946;2023-02-24T10:00:57;9.27;;;4.17;;
25091;SDS011;13082;52.374;4.946;2023-02-24T10:06:28;11.70;;;5.67;;
25091;SDS011;13082;52.374;4.946;2023-02-24T10:09:13;8.03;;;5.40;;
25091;SDS011;13082;52.374;4.946;2023-02-24T10:11:49;10.10;;;5.87;;
25091;SDS011;13082;52.374;4.946;2023-02-24T10:14:42;9.30;;;5.27;;
25091;SDS011;13082;52.374;4.946;2023-02-24T10:17:45;10.67;;;6.13;;
25091;SDS011;13082;52.374;4.946;2023-02-24T10:20:25;21.40;;;6.40;;
25091;SDS011;13082;52.374;4.946;2023-02-24T10:26:10;11.57;;;5.83;;
25091;SDS011;13082;52.374;4.946;2023-02-24T10:31:47;12.30;;;6.33;;
25091;SDS011;13082;52.374;4.946;2023-02-24T10:34:25;11.27;;;6.77;;
25091;SDS011;13082;52.374;4.946;2023-02-24T10:37:09;16.03;;;5.67;;
25091;SDS011;13082;52.374;4.946;2023-02-24T10:39:36;12.20;;;4.90;;
25091;SDS011;13082;52.374;4.946;2023-02-24T10:42:06;12.27;;;5.20;;
25091;SDS011;13082;52.374;4.946;2023-02-24T10:44:42;10.23;;;5.33;;
25091;SDS011;13082;52.374;4.946;2023-02-24T10:47:17;13.03;;;4.80;;
25091;SDS011;13082;52.374;4.946;2023-02-24T10:49:56;11.57;;;4.23;;
25091;SDS011;13082;52.374;4.946;2023-02-24T10:52:32;10.83;;;4.50;;
25091;SDS011;13082;52.374;4.946;2023-02-24T10:55:08;10.73;;;3.93;;
25091;SDS011;13082;52.374;4.946;2023-02-24T10:58:03;13.13;;;3.73;;
25091;SDS011;13082;52.374;4.946;2023-02-24T11:00:40;11.00;;;4.03;;
25091;SDS011;13082;52.374;4.946;2023-02-24T11:03:27;15.77;;;4.20;;
25091;SDS011;13082;52.374;4.946;2023-02-24T11:06:00;11.03;;;3.57;;
25091;SDS011;13082;52.374;4.946;2023-02-24T11:08:27;14.37;;;4.13;;
25091;SDS011;13082;52.374;4.946;2023-02-24T11:11:14;11.47;;;3.40;;
25091;SDS011;13082;52.374;4.946;2023-02-24T11:13:50;11.80;;;2.97;;
25091;SDS011;13082;52.374;4.946;2023-02-24T11:16:42;10.57;;;2.57;;
25091;SDS011;13082;52.374;4.946;2023-02-24T11:19:33;11.63;;;3.53;;
25091;SDS011;13082;52.374;4.946;2023-02-24T11:22:26;18.43;;;3.37;;
25091;SDS011;13082;52.374;4.946;2023-02-24T11:25:06;17.13;;;3.83;;
25091;SDS011;13082;52.374;4.946;2023-02-24T11:27:39;20.83;;;3.30;;
25091;SDS011;13082;52.374;4.946;2023-02-24T11:35:23;20.60;;;4.00;;
25091;SDS011;13082;52.374;4.946;2023-02-24T11:38:29;16.00;;;3.63;;
25091;SDS011;13082;52.374;4.946;2023-02-24T11:43:37;18.10;;;4.20;;
25091;SDS011;13082;52.374;4.946;2023-02-24T11:46:16;19.27;;;3.80;;
25091;SDS011;13082;52.374;4.946;2023-02-24T11:48:51;15.33;;;3.87;;
25091;SDS011;13082;52.374;4.946;2023-02-24T11:51:29;17.23;;;3.53;;
25091;SDS011;13082;52.374;4.946;2023-02-24T11:57:08;22.17;;;3.87;;
25091;SDS011;13082;52.374;4.946;2023-02-24T11:59:41;13.83;;;3.50;;
25091;SDS011;13082;52.374;4.946;2023-02-24T12:02:24;22.10;;;4.07;;
25091;SDS011;13082;52.374;4.946;2023-02-24T12:05:18;19.57;;;4.87;;
25091;SDS011;13082;52.374;4.946;2023-02-24T12:07:51;13.60;;;3.50;;
25091;SDS011;13082;52.374;4.946;2023-02-24T12:10:22;16.30;;;3.30;;
25091;SDS011;13082;52.374;4.946;2023-02-24T12:13:03;21.23;;;4.00;;
25091;SDS011;13082;52.374;4.946;2023-02-24T12:15:50;16.30;;;3.77;;
25091;SDS011;13082;52.374;4.946;2023-02-24T12:23:56;11.13;;;3.33;;
25091;SDS011;13082;52.374;4.946;2023-02-24T12:26:33;16.80;;;3.87;;
25091;SDS011;13082;52.374;4.946;2023-02-24T12:51:07;15.60;;;3.10;;
25091;SDS011;13082;52.374;4.946;2023-02-24T12:53:38;12.90;;;3.57;;
25091;SDS011;13082;52.374;4.946;2023-02-24T12:58:44;9.43;;;2.50;;
25091;SDS011;13082;52.374;4.946;2023-02-24T13:01:16;4.70;;;2.10;;
25091;SDS011;13082;52.374;4.946;2023-02-24T13:06:57;3.40;;;1.47;;
25091;SDS011;13082;52.374;4.946;2023-02-24T13:12:36;4.57;;;1.73;;
25091;SDS011;13082;52.374;4.946;2023-02-24T13:15:19;7.03;;;2.10;;
25091;SDS011;13082;52.374;4.946;2023-02-24T13:17:47;14.13;;;1.80;;
25091;SDS011;13082;52.374;4.946;2023-02-24T13:20:25;9.47;;;1.80;;
25091;SDS011;13082;52.374;4.946;2023-02-24T13:23:02;11.17;;;2.37;;
25091;SDS011;13082;52.374;4.946;2023-02-24T13:25:48;13.13;;;2.83;;
25091;SDS011;13082;52.374;4.946;2023-02-24T13:28:34;10.13;;;2.90;;
25091;SDS011;13082;52.374;4.946;2023-02-24T13:31:09;13.17;;;1.83;;
25091;SDS011;13082;52.374;4.946;2023-02-24T13:33:40;12.90;;;3.63;;
25091;SDS011;13082;52.374;4.946;2023-02-24T13:38:44;8.93;;;2.70;;
25091;SDS011;13082;52.374;4.946;2023-02-24T13:43:59;5.40;;;1.90;;
25091;SDS011;13082;52.374;4.946;2023-02-24T13:46:30;19.73;;;3.43;;
25091;SDS011;13082;52.374;4.946;2023-02-24T13:49:23;10.47;;;2.30;;
25091;SDS011;13082;52.374;4.946;2023-02-24T13:52:01;9.40;;;2.63;;
25091;SDS011;13082;52.374;4.946;2023-02-24T13:54:53;12.57;;;3.10;;
25091;SDS011;13082;52.374;4.946;2023-02-24T14:00:41;17.67;;;3.07;;
25091;SDS011;13082;52.374;4.946;2023-02-24T14:03:24;16.03;;;2.90;;
25091;SDS011;13082;52.374;4.946;2023-02-24T14:05:51;14.47;;;3.67;;
25091;SDS011;13082;52.374;4.946;2023-02-24T14:09:00;12.90;;;3.13;;
25091;SDS011;13082;52.374;4.946;2023-02-24T14:11:18;12.03;;;2.80;;
25091;SDS011;13082;52.374;4.946;2023-02-24T14:13:49;9.70;;;1.57;;
25091;SDS011;13082;52.374;4.946;2023-02-24T14:16:17;10.97;;;2.23;;
25091;SDS011;13082;52.374;4.946;2023-02-24T14:18:53;7.40;;;1.60;;
25091;SDS011;13082;52.374;4.946;2023-02-24T14:21:22;6.10;;;1.87;;
25091;SDS011;13082;52.374;4.946;2023-02-24T14:23:56;5.30;;;1.60;;
25091;SDS011;13082;52.374;4.946;2023-02-24T14:26:24;5.87;;;1.90;;
25091;SDS011;13082;52.374;4.946;2023-02-24T14:28:55;7.27;;;1.80;;
25091;SDS011;13082;52.374;4.946;2023-02-24T14:31:24;5.97;;;1.43;;
25091;SDS011;13082;52.374;4.946;2023-02-24T14:33:55;4.37;;;1.20;;
25091;SDS011;13082;52.374;4.946;2023-02-24T14:36:24;10.83;;;2.50;;
25091;SDS011;13082;52.374;4.946;2023-02-24T14:39:02;8.13;;;1.73;;
25091;SDS011;13082;52.374;4.946;2023-02-24T14:41:36;2.13;;;1.10;;
25091;SDS011;13082;52.374;4.946;2023-02-24T14:44:16;2.87;;;1.20;;
25091;SDS011;13082;52.374;4.946;2023-02-24T14:46:56;6.30;;;1.37;;
25091;SDS011;13082;52.374;4.946;2023-02-24T14:49:27;4.10;;;1.10;;
25091;SDS011;13082;52.374;4.946;2023-02-24T14:57:01;4.57;;;1.13;;
25091;SDS011;13082;52.374;4.946;2023-02-24T15:02:02;7.00;;;1.50;;
25091;SDS011;13082;52.374;4.946;2023-02-24T15:04:38;5.57;;;1.57;;
25091;SDS011;13082;52.374;4.946;2023-02-24T15:07:13;9.03;;;2.13;;
25091;SDS011;13082;52.374;4.946;2023-02-24T15:09:43;7.80;;;1.73;;
25091;SDS011;13082;52.374;4.946;2023-02-24T15:14:42;8.10;;;2.47;;
25091;SDS011;13082;52.374;4.946;2023-02-24T15:17:32;5.97;;;1.93;;
25091;SDS011;13082;52.374;4.946;2023-02-24T15:20:23;6.53;;;1.50;;
25091;SDS011;13082;52.374;4.946;2023-02-24T15:22:53;7.33;;;1.40;;
25091;SDS011;13082;52.374;4.946;2023-02-24T15:25:25;7.60;;;1.37;;
25091;SDS011;13082;52.374;4.946;2023-02-24T15:28:23;8.63;;;2.07;;
25091;SDS011;13082;52.374;4.946;2023-02-24T15:33:22;7.97;;;1.80;;
25091;SDS011;13082;52.374;4.946;2023-02-24T15:35:50;6.17;;;1.40;;
25091;SDS011;13082;52.374;4.946;2023-02-24T15:38:24;6.13;;;1.83;;
25091;SDS011;13082;52.374;4.946;2023-02-24T15:40:56;10.50;;;1.40;;
25091;SDS011;13082;52.374;4.946;2023-02-24T15:43:32;2.13;;;1.10;;
25091;SDS011;13082;52.374;4.946;2023-02-24T15:46:12;6.03;;;1.53;;
25091;SDS011;13082;52.374;4.946;2023-02-24T15:48:49;5.87;;;1.17;;
25091;SDS011;13082;52.374;4.946;2023-02-24T15:54:14;4.30;;;1.60;;
25091;SDS011;13082;52.374;4.946;2023-02-24T15:56:44;8.63;;;2.70;;
25091;SDS011;13082;52.374;4.946;2023-02-24T15:59:20;3.90;;;1.87;;
25091;SDS011;13082;52.374;4.946;2023-02-24T16:01:46;5.03;;;2.50;;
25091;SDS011;13082;52.374;4.946;2023-02-24T16:04:12;3.80;;;1.70;;
25091;SDS011;13082;52.374;4.946;2023-02-24T16:06:38;14.17;;;2.47;;
25091;SDS011;13082;52.374;4.946;2023-02-24T16:09:13;6.87;;;1.87;;
25091;SDS011;13082;52.374;4.946;2023-02-24T16:11:41;13.63;;;1.83;;
25091;SDS011;13082;52.374;4.946;2023-02-24T16:14:12;7.73;;;2.20;;
25091;SDS011;13082;52.374;4.946;2023-02-24T16:16:40;14.37;;;2.57;;
25091;SDS011;13082;52.374;4.946;2023-02-24T16:19:05;9.07;;;1.93;;
25091;SDS011;13082;52.374;4.946;2023-02-24T16:21:32;11.33;;;2.20;;
25091;SDS011;13082;52.374;4.946;2023-02-24T16:23:58;14.40;;;3.13;;
25091;SDS011;13082;52.374;4.946;2023-02-24T16:26:23;8.37;;;2.90;;
25091;SDS011;13082;52.374;4.946;2023-02-24T16:28:53;8.30;;;2.27;;
25091;SDS011;13082;52.374;4.946;2023-02-24T16:31:21;13.80;;;3.10;;
25091;SDS011;13082;52.374;4.946;2023-02-24T16:33:48;12.87;;;2.73;;
25091;SDS011;13082;52.374;4.946;2023-02-24T16:36:14;12.87;;;2.70;;
25091;SDS011;13082;52.374;4.946;2023-02-24T16:38:41;14.20;;;2.27;;
25091;SDS011;13082;52.374;4.946;2023-02-24T16:41:08;11.63;;;2.83;;
25091;SDS011;13082;52.374;4.946;2023-02-24T16:43:36;11.50;;;2.77;;
25091;SDS011;13082;52.374;4.946;2023-02-24T16:46:03;16.93;;;2.90;;
25091;SDS011;13082;52.374;4.946;2023-02-24T16:48:31;10.90;;;2.63;;
25091;SDS011;13082;52.374;4.946;2023-02-24T16:51:00;9.63;;;2.23;;
25091;SDS011;13082;52.374;4.946;2023-02-24T16:53:29;9.07;;;2.10;;
25091;SDS011;13082;52.374;4.946;2023-02-24T16:55:55;5.43;;;2.00;;
25091;SDS011;13082;52.374;4.946;2023-02-24T16:58:21;9.50;;;1.77;;
25091;SDS011;13082;52.374;4.946;2023-02-24T17:00:47;8.97;;;3.33;;
25091;SDS011;13082;52.374;4.946;2023-02-24T17:03:23;14.47;;;2.13;;
25091;SDS011;13082;52.374;4.946;2023-02-24T17:05:51;8.57;;;2.17;;
25091;SDS011;13082;52.374;4.946;2023-02-24T17:08:17;10.57;;;1.97;;
25091;SDS011;13082;52.374;4.946;2023-02-24T17:10:43;15.07;;;2.73;;
25091;SDS011;13082;52.374;4.946;2023-02-24T17:13:11;10.70;;;2.77;;
25091;SDS011;13082;52.374;4.946;2023-02-24T17:15:37;15.13;;;3.23;;
25091;SDS011;13082;52.374;4.946;2023-02-24T17:18:03;6.80;;;2.57;;
25091;SDS011;13082;52.374;4.946;2023-02-24T17:20:30;11.60;;;2.70;;